sensor_id;sensor_type;location;lat;lon;timestamp;P1;durP1;ratioP1;P2;durP2;ratioP2
68976;SDS011;56029;52.568;13.588;2023-08-20T00:00:16;25.27;;;19.30;;
68976;SDS011;56029;52.568;13.588;2023-08-20T00:03:10;23.92;;;18.65;;
68976;SDS011;56029;52.568;13.588;2023-08-20T00:05:39;25.13;;;19.55;;
68976;SDS011;56029;52.568;13.588;2023-08-20T00:08:05;23.38;;;18.27;;
68976;SDS011;56029;52.568;13.588;2023-08-20T00:10:32;25.63;;;18.83;;
68976;SDS011;56029;52.568;13.588;2023-08-20T00:12:57;25.57;;;19.30;;
68976;SDS011;56029;52.568;13.588;2023-08-20T00:15:23;23.65;;;18.88;;
68976;SDS011;56029;52.568;13.588;2023-08-20T00:17:52;28.33;;;22.27;;
68976;SDS011;56029;52.568;13.588;2023-08-20T00:20:18;32.65;;;25.30;;
68976;SDS011;56029;52.568;13.588;2023-08-20T00:22:45;32.07;;;23.87;;
68976;SDS011;56029;52.568;13.588;2023-08-20T00:25:11;30.55;;;23.48;;
68976;SDS011;56029;52.568;13.588;2023-08-20T00:27:41;29.38;;;23.77;;
68976;SDS011;56029;52.568;13.588;2023-08-20T00:30:07;29.25;;;22.88;;
68976;SDS011;56029;52.568;13.588;2023-08-20T00:32:34;28.75;;;21.75;;
68976;SDS011;56029;52.568;13.588;2023-08-20T00:34:59;29.07;;;22.47;;
68976;SDS011;56029;52.568;13.588;2023-08-20T00:37:25;27.50;;;21.75;;
68976;SDS011;56029;52.568;13.588;2023-08-20T00:39:50;27.27;;;21.77;;
68976;SDS011;56029;52.568;13.588;2023-08-20T00:42:16;27.70;;;20.40;;
68976;SDS011;56029;52.568;13.588;2023-08-20T00:44:42;26.17;;;20.10;;
68976;SDS011;56029;52.568;13.588;2023-08-20T00:47:11;25.38;;;20.08;;
68976;SDS011;56029;52.568;13.588;2023-08-20T00:49:38;25.55;;;21.05;;
68976;SDS011;56029;52.568;13.588;2023-08-20T00:52:05;27.77;;;20.43;;
68976;SDS011;56029;52.568;13.588;2023-08-20T00:54:33;26.17;;;20.05;;
68976;SDS011;56029;52.568;13.588;2023-08-20T00:56:59;24.40;;;19.23;;
68976;SDS011;56029;52.568;13.588;2023-08-20T00:59:26;25.55;;;18.98;;
68976;SDS011;56029;52.568;13.588;2023-08-20T01:01:52;24.10;;;18.73;;
68976;SDS011;56029;52.568;13.588;2023-08-20T01:04:18;23.40;;;18.57;;
68976;SDS011;56029;52.568;13.588;2023-08-20T01:06:55;22.57;;;18.27;;
68976;SDS011;56029;52.568;13.588;2023-08-20T01:12:22;22.83;;;17.88;;
68976;SDS011;56029;52.568;13.588;2023-08-20T01:14:49;22.35;;;17.55;;
68976;SDS011;56029;52.568;13.588;2023-08-20T01:17:15;22.83;;;18.30;;
68976;SDS011;56029;52.568;13.588;2023-08-20T01:19:41;23.38;;;19.15;;
68976;SDS011;56029;52.568;13.588;2023-08-20T01:22:14;23.90;;;18.30;;
68976;SDS011;56029;52.568;13.588;2023-08-20T01:27:43;24.42;;;19.27;;
68976;SDS011;56029;52.568;13.588;2023-08-20T01:30:28;23.33;;;18.45;;
68976;SDS011;56029;52.568;13.588;2023-08-20T01:32:55;23.30;;;18.88;;
68976;SDS011;56029;52.568;13.588;2023-08-20T01:35:22;22.75;;;18.67;;
68976;SDS011;56029;52.568;13.588;2023-08-20T01:37:50;23.07;;;18.13;;
68976;SDS011;56029;52.568;13.588;2023-08-20T01:40:16;24.27;;;18.90;;
68976;SDS011;56029;52.568;13.588;2023-08-20T01:42:41;21.80;;;17.30;;
68976;SDS011;56029;52.568;13.588;2023-08-20T01:45:07;23.93;;;18.20;;
68976;SDS011;56029;52.568;13.588;2023-08-20T01:47:33;23.40;;;16.92;;
68976;SDS011;56029;52.568;13.588;2023-08-20T01:49:59;23.40;;;16.63;;
68976;SDS011;56029;52.568;13.588;2023-08-20T01:52:24;21.50;;;16.27;;
68976;SDS011;56029;52.568;13.588;2023-08-20T01:54:50;20.58;;;15.75;;
68976;SDS011;56029;52.568;13.588;2023-08-20T01:57:16;21.47;;;15.87;;
68976;SDS011;56029;52.568;13.588;2023-08-20T01:59:41;19.90;;;15.52;;
68976;SDS011;56029;52.568;13.588;2023-08-20T02:02:07;20.30;;;16.23;;
68976;SDS011;56029;52.568;13.588;2023-08-20T02:04:33;20.77;;;15.60;;
68976;SDS011;56029;52.568;13.588;2023-08-20T02:06:58;21.93;;;15.63;;
68976;SDS011;56029;52.568;13.588;2023-08-20T02:09:24;21.42;;;15.55;;
68976;SDS011;56029;52.568;13.588;2023-08-20T02:11:50;20.93;;;15.80;;
68976;SDS011;56029;52.568;13.588;2023-08-20T02:14:16;21.33;;;15.80;;
68976;SDS011;56029;52.568;13.588;2023-08-20T02:16:42;20.40;;;14.73;;
68976;SDS011;56029;52.568;13.588;2023-08-20T02:19:08;23.20;;;15.63;;
68976;SDS011;56029;52.568;13.588;2023-08-20T02:21:34;20.23;;;15.23;;
68976;SDS011;56029;52.568;13.588;2023-08-20T02:23:59;21.33;;;15.15;;
68976;SDS011;56029;52.568;13.588;2023-08-20T02:26:25;20.73;;;14.83;;
68976;SDS011;56029;52.568;13.588;2023-08-20T02:28:50;21.27;;;15.47;;
68976;SDS011;56029;52.568;13.588;2023-08-20T02:31:16;20.52;;;14.80;;
68976;SDS011;56029;52.568;13.588;2023-08-20T02:33:41;21.43;;;15.73;;
68976;SDS011;56029;52.568;13.588;2023-08-20T02:36:07;20.17;;;14.90;;
68976;SDS011;56029;52.568;13.588;2023-08-20T02:38:32;19.80;;;15.17;;
68976;SDS011;56029;52.568;13.588;2023-08-20T02:40:58;22.63;;;15.77;;
68976;SDS011;56029;52.568;13.588;2023-08-20T02:43:23;19.88;;;15.45;;
68976;SDS011;56029;52.568;13.588;2023-08-20T02:45:49;21.07;;;15.40;;
68976;SDS011;56029;52.568;13.588;2023-08-20T02:48:15;19.45;;;14.90;;
68976;SDS011;56029;52.568;13.588;2023-08-20T02:50:40;21.50;;;15.67;;
68976;SDS011;56029;52.568;13.588;2023-08-20T02:53:06;20.73;;;15.53;;
68976;SDS011;56029;52.568;13.588;2023-08-20T02:55:32;20.92;;;15.18;;
68976;SDS011;56029;52.568;13.588;2023-08-20T02:57:58;23.55;;;15.75;;
68976;SDS011;56029;52.568;13.588;2023-08-20T03:00:24;20.60;;;15.97;;
68976;SDS011;56029;52.568;13.588;2023-08-20T03:02:50;22.60;;;15.00;;
68976;SDS011;56029;52.568;13.588;2023-08-20T03:05:16;20.40;;;16.00;;
68976;SDS011;56029;52.568;13.588;2023-08-20T03:07:41;24.48;;;15.68;;
68976;SDS011;56029;52.568;13.588;2023-08-20T03:10:07;23.23;;;16.40;;
68976;SDS011;56029;52.568;13.588;2023-08-20T03:12:32;22.25;;;15.70;;
68976;SDS011;56029;52.568;13.588;2023-08-20T03:14:59;24.33;;;16.50;;
68976;SDS011;56029;52.568;13.588;2023-08-20T03:17:24;22.52;;;15.77;;
68976;SDS011;56029;52.568;13.588;2023-08-20T03:19:57;22.13;;;15.68;;
68976;SDS011;56029;52.568;13.588;2023-08-20T03:22:24;22.57;;;16.57;;
68976;SDS011;56029;52.568;13.588;2023-08-20T03:24:50;21.05;;;16.15;;
68976;SDS011;56029;52.568;13.588;2023-08-20T03:27:16;23.97;;;16.80;;
68976;SDS011;56029;52.568;13.588;2023-08-20T03:29:42;23.20;;;16.05;;
68976;SDS011;56029;52.568;13.588;2023-08-20T03:32:08;22.05;;;16.27;;
68976;SDS011;56029;52.568;13.588;2023-08-20T03:34:34;24.23;;;16.48;;
68976;SDS011;56029;52.568;13.588;2023-08-20T03:37:00;22.23;;;15.57;;
68976;SDS011;56029;52.568;13.588;2023-08-20T03:39:26;22.05;;;15.10;;
68976;SDS011;56029;52.568;13.588;2023-08-20T03:41:52;22.60;;;15.60;;
68976;SDS011;56029;52.568;13.588;2023-08-20T03:44:18;21.85;;;15.63;;
68976;SDS011;56029;52.568;13.588;2023-08-20T03:46:44;22.40;;;16.48;;
68976;SDS011;56029;52.568;13.588;2023-08-20T03:49:10;22.20;;;16.67;;
68976;SDS011;56029;52.568;13.588;2023-08-20T03:51:35;24.83;;;16.57;;
68976;SDS011;56029;52.568;13.588;2023-08-20T03:54:01;22.70;;;16.37;;
68976;SDS011;56029;52.568;13.588;2023-08-20T03:56:27;23.30;;;16.77;;
68976;SDS011;56029;52.568;13.588;2023-08-20T03:58:53;22.73;;;16.25;;
68976;SDS011;56029;52.568;13.588;2023-08-20T04:01:19;21.83;;;16.87;;
68976;SDS011;56029;52.568;13.588;2023-08-20T04:03:45;24.85;;;17.17;;
68976;SDS011;56029;52.568;13.588;2023-08-20T04:06:11;22.17;;;16.60;;
68976;SDS011;56029;52.568;13.588;2023-08-20T04:08:37;23.20;;;17.20;;
68976;SDS011;56029;52.568;13.588;2023-08-20T04:11:02;24.30;;;16.73;;
68976;SDS011;56029;52.568;13.588;2023-08-20T04:13:29;22.57;;;16.43;;
68976;SDS011;56029;52.568;13.588;2023-08-20T04:15:55;22.48;;;16.13;;
68976;SDS011;56029;52.568;13.588;2023-08-20T04:18:21;24.33;;;16.60;;
68976;SDS011;56029;52.568;13.588;2023-08-20T04:20:47;23.73;;;16.23;;
68976;SDS011;56029;52.568;13.588;2023-08-20T04:23:13;22.98;;;15.75;;
68976;SDS011;56029;52.568;13.588;2023-08-20T04:25:38;22.50;;;16.07;;
68976;SDS011;56029;52.568;13.588;2023-08-20T04:28:05;23.42;;;16.23;;
68976;SDS011;56029;52.568;13.588;2023-08-20T04:30:30;23.53;;;16.03;;
68976;SDS011;56029;52.568;13.588;2023-08-20T04:32:56;23.17;;;16.80;;
68976;SDS011;56029;52.568;13.588;2023-08-20T04:35:21;24.20;;;16.23;;
68976;SDS011;56029;52.568;13.588;2023-08-20T04:37:47;21.08;;;15.63;;
68976;SDS011;56029;52.568;13.588;2023-08-20T04:40:13;22.27;;;16.23;;
68976;SDS011;56029;52.568;13.588;2023-08-20T04:42:38;22.47;;;15.33;;
68976;SDS011;56029;52.568;13.588;2023-08-20T04:45:04;20.92;;;15.68;;
68976;SDS011;56029;52.568;13.588;2023-08-20T04:47:30;21.52;;;15.65;;
68976;SDS011;56029;52.568;13.588;2023-08-20T04:49:55;23.67;;;16.67;;
68976;SDS011;56029;52.568;13.588;2023-08-20T04:52:21;22.47;;;15.87;;
68976;SDS011;56029;52.568;13.588;2023-08-20T04:54:47;20.55;;;15.90;;
68976;SDS011;56029;52.568;13.588;2023-08-20T04:57:13;23.77;;;15.97;;
68976;SDS011;56029;52.568;13.588;2023-08-20T04:59:38;22.10;;;15.82;;
68976;SDS011;56029;52.568;13.588;2023-08-20T05:02:04;23.33;;;15.93;;
68976;SDS011;56029;52.568;13.588;2023-08-20T05:04:29;21.33;;;15.47;;
68976;SDS011;56029;52.568;13.588;2023-08-20T05:06:55;21.48;;;15.48;;
68976;SDS011;56029;52.568;13.588;2023-08-20T05:09:21;23.57;;;16.23;;
68976;SDS011;56029;52.568;13.588;2023-08-20T05:11:47;21.40;;;15.30;;
68976;SDS011;56029;52.568;13.588;2023-08-20T05:14:12;22.33;;;15.63;;
68976;SDS011;56029;52.568;13.588;2023-08-20T05:16:38;22.67;;;15.87;;
68976;SDS011;56029;52.568;13.588;2023-08-20T05:19:03;20.88;;;15.07;;
68976;SDS011;56029;52.568;13.588;2023-08-20T05:21:29;21.27;;;15.43;;
68976;SDS011;56029;52.568;13.588;2023-08-20T05:23:54;22.33;;;16.20;;
68976;SDS011;56029;52.568;13.588;2023-08-20T05:26:21;21.73;;;15.15;;
68976;SDS011;56029;52.568;13.588;2023-08-20T05:28:47;22.63;;;15.25;;
68976;SDS011;56029;52.568;13.588;2023-08-20T05:31:13;21.77;;;15.27;;
68976;SDS011;56029;52.568;13.588;2023-08-20T05:33:38;23.27;;;15.50;;
68976;SDS011;56029;52.568;13.588;2023-08-20T05:36:04;21.52;;;15.23;;
68976;SDS011;56029;52.568;13.588;2023-08-20T05:38:29;20.90;;;15.33;;
68976;SDS011;56029;52.568;13.588;2023-08-20T05:40:55;21.42;;;15.68;;
68976;SDS011;56029;52.568;13.588;2023-08-20T05:43:20;21.90;;;15.07;;
68976;SDS011;56029;52.568;13.588;2023-08-20T05:45:46;21.80;;;15.10;;
68976;SDS011;56029;52.568;13.588;2023-08-20T05:48:11;21.33;;;15.15;;
68976;SDS011;56029;52.568;13.588;2023-08-20T05:50:37;20.43;;;14.10;;
68976;SDS011;56029;52.568;13.588;2023-08-20T05:53:03;20.65;;;13.85;;
68976;SDS011;56029;52.568;13.588;2023-08-20T05:55:29;20.63;;;14.57;;
68976;SDS011;56029;52.568;13.588;2023-08-20T05:57:54;19.67;;;13.80;;
68976;SDS011;56029;52.568;13.588;2023-08-20T06:00:20;19.63;;;14.38;;
68976;SDS011;56029;52.568;13.588;2023-08-20T06:02:45;19.57;;;13.27;;
68976;SDS011;56029;52.568;13.588;2023-08-20T06:05:11;20.27;;;13.25;;
68976;SDS011;56029;52.568;13.588;2023-08-20T06:07:36;21.60;;;14.50;;
68976;SDS011;56029;52.568;13.588;2023-08-20T06:10:02;21.42;;;13.35;;
68976;SDS011;56029;52.568;13.588;2023-08-20T06:12:28;20.40;;;14.03;;
68976;SDS011;56029;52.568;13.588;2023-08-20T06:14:53;19.07;;;13.33;;
68976;SDS011;56029;52.568;13.588;2023-08-20T06:17:19;19.67;;;14.10;;
68976;SDS011;56029;52.568;13.588;2023-08-20T06:19:44;18.00;;;13.30;;
68976;SDS011;56029;52.568;13.588;2023-08-20T06:22:10;20.48;;;14.07;;
68976;SDS011;56029;52.568;13.588;2023-08-20T06:24:36;20.23;;;13.27;;
68976;SDS011;56029;52.568;13.588;2023-08-20T06:27:01;19.00;;;13.63;;
68976;SDS011;56029;52.568;13.588;2023-08-20T06:29:27;18.38;;;12.93;;
68976;SDS011;56029;52.568;13.588;2023-08-20T06:31:52;18.30;;;12.70;;
68976;SDS011;56029;52.568;13.588;2023-08-20T06:34:18;19.15;;;11.75;;
68976;SDS011;56029;52.568;13.588;2023-08-20T06:36:43;17.10;;;11.57;;
68976;SDS011;56029;52.568;13.588;2023-08-20T06:39:09;17.83;;;12.23;;
68976;SDS011;56029;52.568;13.588;2023-08-20T06:41:35;17.58;;;12.57;;
68976;SDS011;56029;52.568;13.588;2023-08-20T06:44:01;17.58;;;12.73;;
68976;SDS011;56029;52.568;13.588;2023-08-20T06:46:27;16.93;;;12.30;;
68976;SDS011;56029;52.568;13.588;2023-08-20T06:48:53;17.05;;;12.27;;
68976;SDS011;56029;52.568;13.588;2023-08-20T06:51:19;16.37;;;12.33;;
68976;SDS011;56029;52.568;13.588;2023-08-20T06:53:49;19.00;;;12.45;;
68976;SDS011;56029;52.568;13.588;2023-08-20T06:56:14;17.80;;;12.73;;
68976;SDS011;56029;52.568;13.588;2023-08-20T06:58:40;16.00;;;12.27;;
68976;SDS011;56029;52.568;13.588;2023-08-20T07:01:07;17.98;;;12.55;;
68976;SDS011;56029;52.568;13.588;2023-08-20T07:03:33;15.77;;;11.70;;
68976;SDS011;56029;52.568;13.588;2023-08-20T07:06:02;16.23;;;11.10;;
68976;SDS011;56029;52.568;13.588;2023-08-20T07:08:28;17.13;;;11.63;;
68976;SDS011;56029;52.568;13.588;2023-08-20T07:10:53;17.40;;;12.30;;
68976;SDS011;56029;52.568;13.588;2023-08-20T07:13:19;16.40;;;11.63;;
68976;SDS011;56029;52.568;13.588;2023-08-20T07:15:44;15.53;;;11.90;;
68976;SDS011;56029;52.568;13.588;2023-08-20T07:18:10;18.73;;;12.13;;
68976;SDS011;56029;52.568;13.588;2023-08-20T07:20:38;16.92;;;12.10;;
68976;SDS011;56029;52.568;13.588;2023-08-20T07:23:04;17.23;;;12.07;;
68976;SDS011;56029;52.568;13.588;2023-08-20T07:25:30;16.77;;;11.80;;
68976;SDS011;56029;52.568;13.588;2023-08-20T07:27:56;19.00;;;11.27;;
68976;SDS011;56029;52.568;13.588;2023-08-20T07:30:27;15.48;;;11.73;;
68976;SDS011;56029;52.568;13.588;2023-08-20T07:32:53;16.35;;;12.23;;
68976;SDS011;56029;52.568;13.588;2023-08-20T07:35:18;18.57;;;11.73;;
68976;SDS011;56029;52.568;13.588;2023-08-20T07:37:44;20.07;;;12.40;;
68976;SDS011;56029;52.568;13.588;2023-08-20T07:40:11;18.73;;;13.25;;
68976;SDS011;56029;52.568;13.588;2023-08-20T07:42:39;18.52;;;12.63;;
68976;SDS011;56029;52.568;13.588;2023-08-20T07:45:05;19.60;;;12.95;;
68976;SDS011;56029;52.568;13.588;2023-08-20T07:47:33;16.75;;;12.30;;
68976;SDS011;56029;52.568;13.588;2023-08-20T07:49:59;17.37;;;12.10;;
68976;SDS011;56029;52.568;13.588;2023-08-20T07:52:24;16.05;;;11.25;;
68976;SDS011;56029;52.568;13.588;2023-08-20T07:54:50;17.30;;;11.63;;
68976;SDS011;56029;52.568;13.588;2023-08-20T07:57:15;17.38;;;12.10;;
68976;SDS011;56029;52.568;13.588;2023-08-20T07:59:41;17.53;;;12.47;;
68976;SDS011;56029;52.568;13.588;2023-08-20T08:02:06;16.23;;;11.70;;
68976;SDS011;56029;52.568;13.588;2023-08-20T08:04:33;15.77;;;11.75;;
68976;SDS011;56029;52.568;13.588;2023-08-20T08:06:59;17.57;;;11.27;;
68976;SDS011;56029;52.568;13.588;2023-08-20T08:09:29;16.55;;;11.15;;
68976;SDS011;56029;52.568;13.588;2023-08-20T08:11:56;18.65;;;11.77;;
68976;SDS011;56029;52.568;13.588;2023-08-20T08:14:23;15.00;;;11.07;;
68976;SDS011;56029;52.568;13.588;2023-08-20T08:16:49;16.70;;;11.43;;
68976;SDS011;56029;52.568;13.588;2023-08-20T08:19:15;17.45;;;12.45;;
68976;SDS011;56029;52.568;13.588;2023-08-20T08:21:41;16.38;;;11.60;;
68976;SDS011;56029;52.568;13.588;2023-08-20T08:24:08;17.20;;;11.48;;
68976;SDS011;56029;52.568;13.588;2023-08-20T08:26:34;17.02;;;12.27;;
68976;SDS011;56029;52.568;13.588;2023-08-20T08:29:01;17.77;;;12.23;;
68976;SDS011;56029;52.568;13.588;2023-08-20T08:31:28;16.40;;;12.48;;
68976;SDS011;56029;52.568;13.588;2023-08-20T08:33:53;16.53;;;11.73;;
68976;SDS011;56029;52.568;13.588;2023-08-20T08:36:19;17.08;;;11.73;;
68976;SDS011;56029;52.568;13.588;2023-08-20T08:38:44;19.47;;;12.93;;
68976;SDS011;56029;52.568;13.588;2023-08-20T08:41:11;17.98;;;12.68;;
68976;SDS011;56029;52.568;13.588;2023-08-20T08:43:41;17.02;;;12.18;;
68976;SDS011;56029;52.568;13.588;2023-08-20T08:46:07;19.37;;;12.80;;
68976;SDS011;56029;52.568;13.588;2023-08-20T08:48:35;17.20;;;12.02;;
68976;SDS011;56029;52.568;13.588;2023-08-20T08:51:01;18.80;;;12.35;;
68976;SDS011;56029;52.568;13.588;2023-08-20T08:53:27;16.48;;;11.90;;
68976;SDS011;56029;52.568;13.588;2023-08-20T08:55:53;17.20;;;12.98;;
68976;SDS011;56029;52.568;13.588;2023-08-20T08:58:19;17.50;;;12.00;;
68976;SDS011;56029;52.568;13.588;2023-08-20T09:00:44;16.90;;;12.43;;
68976;SDS011;56029;52.568;13.588;2023-08-20T09:03:10;17.00;;;12.23;;
68976;SDS011;56029;52.568;13.588;2023-08-20T09:05:48;17.15;;;12.02;;
68976;SDS011;56029;52.568;13.588;2023-08-20T09:08:28;15.80;;;11.80;;
68976;SDS011;56029;52.568;13.588;2023-08-20T09:10:59;18.77;;;12.50;;
68976;SDS011;56029;52.568;13.588;2023-08-20T09:13:39;16.77;;;12.03;;
68976;SDS011;56029;52.568;13.588;2023-08-20T09:16:08;15.80;;;11.70;;
68976;SDS011;56029;52.568;13.588;2023-08-20T09:18:38;15.23;;;11.40;;
68976;SDS011;56029;52.568;13.588;2023-08-20T09:21:08;19.20;;;13.02;;
68976;SDS011;56029;52.568;13.588;2023-08-20T09:23:35;15.73;;;11.20;;
68976;SDS011;56029;52.568;13.588;2023-08-20T09:26:02;15.50;;;11.30;;
68976;SDS011;56029;52.568;13.588;2023-08-20T09:28:28;16.15;;;11.73;;
68976;SDS011;56029;52.568;13.588;2023-08-20T09:30:57;16.60;;;12.15;;
68976;SDS011;56029;52.568;13.588;2023-08-20T09:33:26;17.70;;;12.20;;
68976;SDS011;56029;52.568;13.588;2023-08-20T09:35:52;16.20;;;11.88;;
68976;SDS011;56029;52.568;13.588;2023-08-20T09:38:21;17.27;;;11.77;;
68976;SDS011;56029;52.568;13.588;2023-08-20T09:40:48;15.10;;;10.85;;
68976;SDS011;56029;52.568;13.588;2023-08-20T09:43:17;15.52;;;12.00;;
68976;SDS011;56029;52.568;13.588;2023-08-20T09:45:44;15.27;;;11.73;;
68976;SDS011;56029;52.568;13.588;2023-08-20T09:48:11;16.20;;;11.60;;
68976;SDS011;56029;52.568;13.588;2023-08-20T09:50:42;15.30;;;11.82;;
68976;SDS011;56029;52.568;13.588;2023-08-20T09:53:17;17.45;;;12.32;;
68976;SDS011;56029;52.568;13.588;2023-08-20T09:55:52;15.77;;;11.20;;
68976;SDS011;56029;52.568;13.588;2023-08-20T09:58:24;15.33;;;10.90;;
68976;SDS011;56029;52.568;13.588;2023-08-20T10:00:52;15.15;;;11.38;;
68976;SDS011;56029;52.568;13.588;2023-08-20T10:03:18;15.52;;;11.40;;
68976;SDS011;56029;52.568;13.588;2023-08-20T10:05:48;15.03;;;10.83;;
68976;SDS011;56029;52.568;13.588;2023-08-20T10:08:15;13.95;;;10.48;;
68976;SDS011;56029;52.568;13.588;2023-08-20T10:10:42;16.05;;;11.32;;
68976;SDS011;56029;52.568;13.588;2023-08-20T10:13:07;14.90;;;10.77;;
68976;SDS011;56029;52.568;13.588;2023-08-20T10:15:33;13.40;;;10.40;;
68976;SDS011;56029;52.568;13.588;2023-08-20T10:18:01;15.55;;;10.80;;
68976;SDS011;56029;52.568;13.588;2023-08-20T10:20:30;16.33;;;10.30;;
68976;SDS011;56029;52.568;13.588;2023-08-20T10:23:00;12.57;;;9.30;;
68976;SDS011;56029;52.568;13.588;2023-08-20T10:25:27;14.65;;;10.07;;
68976;SDS011;56029;52.568;13.588;2023-08-20T10:27:54;13.55;;;9.93;;
68976;SDS011;56029;52.568;13.588;2023-08-20T10:30:23;11.85;;;8.50;;
68976;SDS011;56029;52.568;13.588;2023-08-20T10:35:18;11.23;;;8.52;;
68976;SDS011;56029;52.568;13.588;2023-08-20T10:38:11;12.10;;;8.75;;
68976;SDS011;56029;52.568;13.588;2023-08-20T10:43:26;11.80;;;7.20;;
68976;SDS011;56029;52.568;13.588;2023-08-20T10:46:05;9.63;;;6.90;;
68976;SDS011;56029;52.568;13.588;2023-08-20T10:48:53;11.30;;;7.30;;
68976;SDS011;56029;52.568;13.588;2023-08-20T10:51:24;10.52;;;6.47;;
68976;SDS011;56029;52.568;13.588;2023-08-20T10:56:45;8.73;;;6.25;;
68976;SDS011;56029;52.568;13.588;2023-08-20T10:59:21;8.30;;;5.60;;
68976;SDS011;56029;52.568;13.588;2023-08-20T11:01:48;8.05;;;5.90;;
68976;SDS011;56029;52.568;13.588;2023-08-20T11:04:19;8.88;;;5.18;;
68976;SDS011;56029;52.568;13.588;2023-08-20T11:06:46;9.48;;;5.30;;
68976;SDS011;56029;52.568;13.588;2023-08-20T11:09:14;7.82;;;5.00;;
68976;SDS011;56029;52.568;13.588;2023-08-20T11:11:40;7.53;;;5.07;;
68976;SDS011;56029;52.568;13.588;2023-08-20T11:14:07;7.47;;;5.13;;
68976;SDS011;56029;52.568;13.588;2023-08-20T11:16:37;9.48;;;5.65;;
68976;SDS011;56029;52.568;13.588;2023-08-20T11:19:03;8.93;;;5.10;;
68976;SDS011;56029;52.568;13.588;2023-08-20T11:21:43;7.53;;;4.35;;
68976;SDS011;56029;52.568;13.588;2023-08-20T11:24:09;7.82;;;4.07;;
68976;SDS011;56029;52.568;13.588;2023-08-20T11:26:35;7.72;;;4.80;;
68976;SDS011;56029;52.568;13.588;2023-08-20T11:29:06;6.47;;;4.13;;
68976;SDS011;56029;52.568;13.588;2023-08-20T11:31:36;6.53;;;4.05;;
68976;SDS011;56029;52.568;13.588;2023-08-20T11:34:02;7.22;;;4.40;;
68976;SDS011;56029;52.568;13.588;2023-08-20T11:36:28;7.75;;;4.55;;
68976;SDS011;56029;52.568;13.588;2023-08-20T11:38:54;5.30;;;3.80;;
68976;SDS011;56029;52.568;13.588;2023-08-20T11:41:20;6.07;;;3.90;;
68976;SDS011;56029;52.568;13.588;2023-08-20T11:43:46;5.95;;;3.78;;
68976;SDS011;56029;52.568;13.588;2023-08-20T11:46:18;4.70;;;3.50;;
68976;SDS011;56029;52.568;13.588;2023-08-20T11:49:00;5.78;;;3.58;;
68976;SDS011;56029;52.568;13.588;2023-08-20T11:51:36;6.40;;;3.73;;
68976;SDS011;56029;52.568;13.588;2023-08-20T11:54:06;5.22;;;3.50;;
68976;SDS011;56029;52.568;13.588;2023-08-20T11:56:33;5.05;;;2.70;;
68976;SDS011;56029;52.568;13.588;2023-08-20T11:58:59;4.68;;;3.10;;
68976;SDS011;56029;52.568;13.588;2023-08-20T12:01:30;5.53;;;3.20;;
68976;SDS011;56029;52.568;13.588;2023-08-20T12:04:00;5.40;;;3.40;;
68976;SDS011;56029;52.568;13.588;2023-08-20T12:06:29;5.03;;;3.00;;
68976;SDS011;56029;52.568;13.588;2023-08-20T12:08:56;5.65;;;3.10;;
68976;SDS011;56029;52.568;13.588;2023-08-20T12:11:25;4.75;;;3.00;;
68976;SDS011;56029;52.568;13.588;2023-08-20T12:13:51;4.65;;;2.72;;
68976;SDS011;56029;52.568;13.588;2023-08-20T12:16:17;5.20;;;3.10;;
68976;SDS011;56029;52.568;13.588;2023-08-20T12:18:45;5.63;;;2.90;;
68976;SDS011;56029;52.568;13.588;2023-08-20T12:21:11;5.32;;;3.08;;
68976;SDS011;56029;52.568;13.588;2023-08-20T12:23:36;4.10;;;2.70;;
68976;SDS011;56029;52.568;13.588;2023-08-20T12:26:02;3.97;;;2.80;;
68976;SDS011;56029;52.568;13.588;2023-08-20T12:28:28;4.22;;;2.95;;
68976;SDS011;56029;52.568;13.588;2023-08-20T12:30:53;4.07;;;2.80;;
68976;SDS011;56029;52.568;13.588;2023-08-20T12:33:19;4.23;;;2.90;;
68976;SDS011;56029;52.568;13.588;2023-08-20T12:35:46;4.63;;;3.00;;
68976;SDS011;56029;52.568;13.588;2023-08-20T12:38:12;5.57;;;3.60;;
68976;SDS011;56029;52.568;13.588;2023-08-20T12:40:37;5.13;;;3.13;;
68976;SDS011;56029;52.568;13.588;2023-08-20T12:43:03;4.63;;;2.83;;
68976;SDS011;56029;52.568;13.588;2023-08-20T12:45:29;6.95;;;3.05;;
68976;SDS011;56029;52.568;13.588;2023-08-20T12:47:55;4.40;;;3.10;;
68976;SDS011;56029;52.568;13.588;2023-08-20T12:50:21;5.70;;;3.00;;
68976;SDS011;56029;52.568;13.588;2023-08-20T12:52:46;4.40;;;2.80;;
68976;SDS011;56029;52.568;13.588;2023-08-20T12:55:14;3.95;;;2.72;;
68976;SDS011;56029;52.568;13.588;2023-08-20T12:57:51;4.23;;;2.80;;
68976;SDS011;56029;52.568;13.588;2023-08-20T13:00:19;4.47;;;2.95;;
68976;SDS011;56029;52.568;13.588;2023-08-20T13:02:44;4.80;;;2.60;;
68976;SDS011;56029;52.568;13.588;2023-08-20T13:05:10;4.40;;;2.90;;
68976;SDS011;56029;52.568;13.588;2023-08-20T13:07:36;4.72;;;2.70;;
68976;SDS011;56029;52.568;13.588;2023-08-20T13:10:02;4.85;;;2.90;;
68976;SDS011;56029;52.568;13.588;2023-08-20T13:12:28;4.38;;;3.00;;
68976;SDS011;56029;52.568;13.588;2023-08-20T13:14:57;4.87;;;2.90;;
68976;SDS011;56029;52.568;13.588;2023-08-20T13:17:23;4.43;;;2.90;;
68976;SDS011;56029;52.568;13.588;2023-08-20T13:19:49;4.55;;;2.75;;
68976;SDS011;56029;52.568;13.588;2023-08-20T13:22:15;4.67;;;3.00;;
68976;SDS011;56029;52.568;13.588;2023-08-20T13:24:41;3.72;;;2.78;;
68976;SDS011;56029;52.568;13.588;2023-08-20T13:27:06;4.33;;;2.80;;
68976;SDS011;56029;52.568;13.588;2023-08-20T13:29:32;4.45;;;2.80;;
68976;SDS011;56029;52.568;13.588;2023-08-20T13:31:57;4.53;;;2.70;;
68976;SDS011;56029;52.568;13.588;2023-08-20T13:34:23;4.60;;;2.80;;
68976;SDS011;56029;52.568;13.588;2023-08-20T13:36:48;4.67;;;2.70;;
68976;SDS011;56029;52.568;13.588;2023-08-20T13:39:14;4.20;;;2.45;;
68976;SDS011;56029;52.568;13.588;2023-08-20T13:41:40;3.50;;;2.40;;
68976;SDS011;56029;52.568;13.588;2023-08-20T13:44:06;4.28;;;2.42;;
68976;SDS011;56029;52.568;13.588;2023-08-20T13:46:33;3.70;;;2.33;;
68976;SDS011;56029;52.568;13.588;2023-08-20T13:48:59;3.10;;;2.03;;
68976;SDS011;56029;52.568;13.588;2023-08-20T13:51:24;2.97;;;2.10;;
68976;SDS011;56029;52.568;13.588;2023-08-20T13:53:50;3.25;;;2.30;;
68976;SDS011;56029;52.568;13.588;2023-08-20T13:56:16;4.13;;;2.00;;
68976;SDS011;56029;52.568;13.588;2023-08-20T13:58:41;3.08;;;1.98;;
68976;SDS011;56029;52.568;13.588;2023-08-20T14:01:07;3.83;;;2.10;;
68976;SDS011;56029;52.568;13.588;2023-08-20T14:03:33;3.30;;;2.20;;
68976;SDS011;56029;52.568;13.588;2023-08-20T14:05:59;3.57;;;1.93;;
68976;SDS011;56029;52.568;13.588;2023-08-20T14:08:24;2.47;;;1.80;;
68976;SDS011;56029;52.568;13.588;2023-08-20T14:10:50;2.57;;;1.53;;
68976;SDS011;56029;52.568;13.588;2023-08-20T14:13:15;3.03;;;1.80;;
68976;SDS011;56029;52.568;13.588;2023-08-20T14:15:41;2.90;;;1.73;;
68976;SDS011;56029;52.568;13.588;2023-08-20T14:18:07;3.03;;;1.83;;
68976;SDS011;56029;52.568;13.588;2023-08-20T14:20:32;2.70;;;1.73;;
68976;SDS011;56029;52.568;13.588;2023-08-20T14:22:58;2.70;;;1.60;;
68976;SDS011;56029;52.568;13.588;2023-08-20T14:25:23;2.83;;;1.50;;
68976;SDS011;56029;52.568;13.588;2023-08-20T14:27:49;3.28;;;1.75;;